X  Sluiten METAR luchtvaart weer gegevens      EHAM Amsterdam Airport Schiphol
Temperatuur
3°C Temperatuur
2°C Dauwpunt
93% Vochtigheid



Wind
8 KM/U
5 MPH
2 M/S
4 KTS



340°
NNW
Huidig weer

Wat bewolking Wat bewolking
Luchtdruk 1019.92 (hPa) - 30.12 (inHg)
Zicht 6.2 (mijl) - 10 (km)
Vliegveld
Vliegveld code EHAM

Locatie : Amsterdam Airport Schiphol
Afstand: 26 (km)

Metar:
EHAM 060425Z 34004KT 9999 FEW020 BKN049 03/02 Q1020 NOSIG

Tijd: 06-12-2022 05:25 CET